Time;durP1;ratioP1;P1;durP2;ratioP2;P2;SDS_P1;SDS_P2;PMS_P1;PMS_P2;Temp;Humidity;BMP_temperature;BMP_pressure;BME280_temperature;BME280_humidity;BME280_pressure;Samples;Min_cycle;Max_cycle;Signal;HPM_P1;HPM_P2
2022/04/29 00:00:06;;;;;;;11.88;7.75;;;;;;;18.25;40.22;100541.69;343032;28;1634;-72
2022/04/29 00:00:18;;;;;;;10.52;7.55;;;;;;;18.24;40.02;100539.97;343962;28;1226;-72
2022/04/29 00:00:31;;;;;;;10.13;7.97;;;;;;;18.26;40.04;100538.13;343407;28;1342;-70
2022/04/29 00:00:43;;;;;;;10.40;8.27;;;;;;;18.28;40.08;100541.53;343760;28;1071;-71
2022/04/29 00:00:55;;;;;;;11.52;8.00;;;;;;;18.27;39.76;100541.59;342917;28;1696;-71
2022/04/29 00:01:08;;;;;;;11.13;7.65;;;;;;;18.28;39.69;100546.78;342670;28;1283;-71
2022/04/29 00:01:22;;;;;;;10.50;7.70;;;;;;;18.26;39.54;100543.38;342616;28;1110;-70
2022/04/29 00:01:34;;;;;;;11.43;7.75;;;;;;;18.23;39.60;100537.41;343440;28;1320;-71
2022/04/29 00:01:46;;;;;;;10.73;7.35;;;;;;;18.25;39.79;100541.69;344023;28;1087;-71
2022/04/29 00:01:58;;;;;;;10.45;7.32;;;;;;;18.28;39.76;100538.88;343046;28;1748;-70
2022/04/29 00:02:10;;;;;;;11.27;7.35;;;;;;;18.29;39.84;100543.25;343562;28;1915;-70
2022/04/29 00:02:23;;;;;;;12.80;7.22;;;;;;;18.31;39.93;100538.75;343648;28;1034;-68
2022/04/29 00:02:36;;;;;;;11.77;7.45;;;;;;;18.31;39.96;100537.88;343675;28;1189;-68
2022/04/29 00:02:48;;;;;;;10.93;7.68;;;;;;;18.34;39.85;100538.59;343610;28;1107;-70
2022/04/29 00:03:01;;;;;;;10.95;7.68;;;;;;;18.36;39.79;100536.72;342927;28;1851;-70
2022/04/29 00:03:13;;;;;;;10.32;7.63;;;;;;;18.38;39.67;100541.06;343170;28;1843;-70
2022/04/29 00:03:25;;;;;;;10.13;7.55;;;;;;;18.37;39.68;100540.19;343258;28;1848;-70
2022/04/29 00:03:38;;;;;;;9.38;7.60;;;;;;;18.35;39.42;100542.06;343251;28;2123;-70
2022/04/29 00:03:53;;;;;;;9.73;7.68;;;;;;;18.35;39.73;100544.69;342171;28;1812;-70
2022/04/29 00:04:05;;;;;;;10.55;7.72;;;;;;;18.36;39.59;100536.72;342066;28;1907;-70
2022/04/29 00:04:17;;;;;;;10.60;7.78;;;;;;;18.39;39.50;100534.88;342285;28;1071;-70
2022/04/29 00:04:29;;;;;;;10.57;7.72;;;;;;;18.40;39.38;100540.06;342237;28;1357;-70
2022/04/29 00:04:42;;;;;;;10.55;7.80;;;;;;;18.43;39.25;100539.03;342208;28;1020;-70
2022/04/29 00:04:54;;;;;;;10.32;7.95;;;;;;;18.44;39.11;100538.97;342200;28;1799;-69
2022/04/29 00:05:08;;;;;;;10.73;7.82;;;;;;;18.44;39.35;100535.50;342038;28;1912;-70
2022/04/29 00:05:20;;;;;;;10.73;7.90;;;;;;;18.45;39.54;100537.19;340716;29;1116;-71
2022/04/29 00:05:36;;;;;;;9.82;7.78;;;;;;;18.46;39.69;100536.25;340739;29;1159;-70
2022/04/29 00:05:49;;;;;;;9.07;7.47;;;;;;;18.43;39.53;100532.03;340954;28;1233;-70
2022/04/29 00:06:01;;;;;;;9.75;7.60;;;;;;;18.46;39.49;100533.63;342663;28;1694;-70
2022/04/29 00:06:16;;;;;;;10.40;7.88;;;;;;;18.47;39.38;100530.06;342777;28;1921;-70
2022/04/29 00:06:28;;;;;;;12.30;7.75;;;;;;;18.47;39.13;100530.06;342852;28;1612;-68
2022/04/29 00:06:40;;;;;;;12.77;7.70;;;;;;;18.48;39.08;100537.03;343386;28;1822;-69
2022/04/29 00:06:52;;;;;;;12.13;7.70;;;;;;;18.48;38.88;100537.03;343754;28;1053;-68
2022/04/29 00:07:06;;;;;;;10.43;7.82;;;;;;;18.43;39.03;100539.03;342532;28;1805;-68
2022/04/29 00:07:18;;;;;;;9.93;7.82;;;;;;;18.48;39.01;100531.78;343426;28;1207;-68
2022/04/29 00:07:30;;;;;;;10.73;7.80;;;;;;;18.49;38.94;100533.47;343494;28;1333;-68
2022/04/29 00:07:42;;;;;;;10.68;7.65;;;;;;;18.50;38.89;100529.91;343588;28;1258;-70
2022/04/29 00:07:54;;;;;;;10.27;7.43;;;;;;;18.49;39.15;100533.47;343400;28;1676;-69
2022/04/29 00:08:08;;;;;;;10.13;7.55;;;;;;;18.50;38.99;100530.75;343638;28;1935;-70
2022/04/29 00:08:20;;;;;;;9.90;7.60;;;;;;;18.50;39.09;100537.81;343622;28;1071;-70
2022/04/29 00:08:32;;;;;;;10.05;7.53;;;;;;;18.52;38.92;100528.06;343609;28;1501;-70
2022/04/29 00:08:44;;;;;;;9.95;7.65;;;;;;;18.51;39.05;100532.47;343840;28;1043;-70
2022/04/29 00:08:56;;;;;;;10.73;7.93;;;;;;;18.52;38.97;100533.31;343182;28;2020;-73
2022/04/29 00:09:08;;;;;;;11.43;7.80;;;;;;;18.52;38.89;100528.06;343061;28;1867;-71
2022/04/29 00:09:21;;;;;;;13.20;7.57;;;;;;;18.53;38.85;100529.75;343562;28;1188;-71
2022/04/29 00:09:34;;;;;;;12.27;7.63;;;;;;;18.56;38.82;100529.59;343570;28;1277;-71
2022/04/29 00:09:46;;;;;;;9.90;7.43;;;;;;;18.56;39.06;100525.16;343048;28;1405;-71
2022/04/29 00:09:58;;;;;;;10.80;7.43;;;;;;;18.58;39.02;100527.72;342326;28;1071;-71
2022/04/29 00:10:12;;;;;;;10.73;7.53;;;;;;;18.61;39.01;100535.44;342407;28;1190;-72
2022/04/29 00:10:24;;;;;;;11.13;7.90;;;;;;;18.62;38.68;100531.06;342250;28;1032;-71
2022/04/29 00:10:37;;;;;;;10.70;7.88;;;;;;;18.62;38.92;100526.63;340798;28;1744;-72
2022/04/29 00:10:49;;;;;;;10.38;7.72;;;;;;;18.59;39.12;100529.41;341971;28;1869;-72
2022/04/29 00:11:01;;;;;;;9.85;7.68;;;;;;;18.60;39.13;100525.88;341250;28;2349;-72
2022/04/29 00:11:14;;;;;;;9.63;7.68;;;;;;;18.60;39.18;100530.28;342110;28;1867;-72
2022/04/29 00:11:27;;;;;;;10.13;7.68;;;;;;;18.60;39.50;100523.22;342110;28;1190;-72
2022/04/29 00:11:39;;;;;;;11.65;7.78;;;;;;;18.60;39.29;100531.13;342264;28;1048;-71
2022/04/29 00:11:52;;;;;;;13.35;7.80;;;;;;;18.60;38.96;100531.13;342514;28;1038;-71
2022/04/29 00:12:07;;;;;;;12.80;7.75;;;;;;;18.57;39.12;100528.66;343062;28;1559;-70
2022/04/29 00:12:19;;;;;;;11.13;7.78;;;;;;;18.59;38.95;100524.16;343646;28;1351;-70
2022/04/29 00:12:31;;;;;;;11.05;8.00;;;;;;;18.59;38.98;100523.31;343810;28;1273;-71
2022/04/29 00:12:46;;;;;;;10.35;7.90;;;;;;;18.58;39.11;100522.47;343023;28;1700;-71
2022/04/29 00:13:01;;;;;;;11.02;8.13;;;;;;;18.59;39.33;100524.16;342641;28;1615;-70
2022/04/29 00:13:15;;;;;;;11.05;8.05;;;;;;;18.54;39.22;100520.91;343229;28;1881;-71
2022/04/29 00:13:28;;;;;;;9.35;7.47;;;;;;;18.55;39.11;100525.25;343501;28;1319;-71
2022/04/29 00:13:40;;;;;;;9.93;7.45;;;;;;;18.58;39.41;100526.88;343502;28;1171;-70
2022/04/29 00:13:52;;;;;;;10.50;7.88;;;;;;;18.55;39.30;100522.59;343405;28;1331;-70
2022/04/29 00:14:04;;;;;;;10.85;8.15;;;;;;;18.54;39.28;100529.66;342946;28;1783;-71
2022/04/29 00:14:16;;;;;;;10.80;7.85;;;;;;;18.54;39.33;100521.75;342910;28;2024;-70
2022/04/29 00:14:29;;;;;;;10.32;7.63;;;;;;;18.55;39.06;100517.34;343053;28;1679;-71
2022/04/29 00:14:41;;;;;;;9.35;7.68;;;;;;;18.54;39.39;100526.19;342245;28;1044;-70
2022/04/29 00:14:55;;;;;;;9.75;7.72;;;;;;;18.55;39.22;100520.84;342180;28;1206;-69
2022/04/29 00:15:08;;;;;;;9.15;7.63;;;;;;;18.51;39.51;100526.34;343384;28;1726;-70
2022/04/29 00:15:21;;;;;;;8.75;7.55;;;;;;;18.53;39.34;100521.84;343417;28;1075;-69
2022/04/29 00:15:33;;;;;;;9.18;7.70;;;;;;;18.54;39.46;100520.91;343374;28;1266;-71
2022/04/29 00:15:45;;;;;;;9.73;8.00;;;;;;;18.55;39.36;100527.88;342579;28;1424;-71
2022/04/29 00:15:57;;;;;;;10.23;8.05;;;;;;;18.55;39.41;100520.84;342233;28;1771;-71
2022/04/29 00:16:09;;;;;;;9.93;8.00;;;;;;;18.57;39.25;100520.75;342134;28;1867;-69
2022/04/29 00:16:22;;;;;;;10.30;8.25;;;;;;;18.56;39.05;100519.91;342194;28;1556;-71
2022/04/29 00:16:34;;;;;;;10.90;8.45;;;;;;;18.58;38.94;100524.25;341067;28;1477;-71
2022/04/29 00:16:47;;;;;;;11.63;8.40;;;;;;;18.56;38.98;100521.69;340992;29;1257;-71
2022/04/29 00:16:59;;;;;;;10.90;8.20;;;;;;;18.58;39.18;100522.47;341084;28;1954;-70
2022/04/29 00:17:11;;;;;;;10.68;8.07;;;;;;;18.58;39.40;100522.47;341291;28;2083;-71
2022/04/29 00:17:24;;;;;;;11.15;8.05;;;;;;;18.55;39.27;100522.59;342525;28;1080;-72
2022/04/29 00:17:35;;;;;;;11.25;7.80;;;;;;;18.55;39.50;100522.59;340994;29;1215;-72
2022/04/29 00:17:48;;;;;;;11.40;7.97;;;;;;;18.52;39.55;100522.78;340839;29;1207;-72
2022/04/29 00:18:00;;;;;;;10.27;7.90;;;;;;;18.54;39.59;100519.13;340496;28;1622;-72
2022/04/29 00:18:12;;;;;;;9.70;7.95;;;;;;;18.56;39.71;100522.53;342144;28;1814;-69
2022/04/29 00:18:24;;;;;;;9.45;7.85;;;;;;;18.57;39.25;100518.13;341674;28;1137;-69
2022/04/29 00:18:37;;;;;;;9.95;7.93;;;;;;;18.55;39.51;100519.97;343376;28;1567;-69
2022/04/29 00:18:49;;;;;;;10.15;7.90;;;;;;;18.55;39.43;100522.59;343809;28;1086;-69
2022/04/29 00:19:01;;;;;;;10.45;7.93;;;;;;;18.58;39.46;100522.47;342797;28;1818;-69
2022/04/29 00:19:13;;;;;;;10.50;8.38;;;;;;;18.59;39.27;100521.50;343295;28;2098;-69
2022/04/29 00:19:26;;;;;;;10.55;8.15;;;;;;;18.60;39.16;100520.59;343562;28;1338;-69
2022/04/29 00:19:39;;;;;;;10.52;7.80;;;;;;;18.60;38.66;100517.13;343452;28;1143;-69
2022/04/29 00:19:52;;;;;;;10.75;7.90;;;;;;;18.62;38.82;100518.75;343028;28;1750;-68
2022/04/29 00:20:06;;;;;;;10.82;8.10;;;;;;;18.59;38.84;100513.63;343331;28;1786;-69
2022/04/29 00:20:18;;;;;;;10.15;7.88;;;;;;;18.61;38.70;100519.66;343153;28;1357;-68
2022/04/29 00:20:30;;;;;;;9.50;7.75;;;;;;;18.59;38.96;100518.88;343513;28;1295;-69
2022/04/29 00:20:42;;;;;;;9.63;7.82;;;;;;;18.51;38.78;100521.06;343603;28;1141;-69
2022/04/29 00:20:54;;;;;;;10.30;7.72;;;;;;;18.55;38.84;100517.34;342867;28;1848;-69
2022/04/29 00:21:06;;;;;;;9.55;7.60;;;;;;;18.58;38.62;100521.63;343732;28;1566;-69
2022/04/29 00:21:18;;;;;;;9.85;7.45;;;;;;;18.58;38.51;100517.19;343028;28;1036;-69
2022/04/29 00:21:30;;;;;;;9.43;7.38;;;;;;;18.60;38.37;100525.88;343382;28;1324;-69
2022/04/29 00:21:42;;;;;;;10.40;7.68;;;;;;;18.59;38.41;100518.03;342394;28;1832;-69
2022/04/29 00:21:55;;;;;;;10.73;7.80;;;;;;;18.58;38.18;100522.47;342058;28;1686;-69
2022/04/29 00:22:07;;;;;;;10.10;7.65;;;;;;;18.59;38.17;100518.88;343428;28;1853;-69
2022/04/29 00:22:21;;;;;;;9.55;7.43;;;;;;;18.60;38.09;100522.38;343253;28;1183;-69
2022/04/29 00:22:33;;;;;;;9.90;7.45;;;;;;;18.61;38.22;100522.28;343641;28;1266;-71
2022/04/29 00:22:45;;;;;;;9.60;7.63;;;;;;;18.61;38.25;100517.03;343356;28;1273;-71
2022/04/29 00:22:57;;;;;;;9.80;7.75;;;;;;;18.62;38.51;100518.75;342375;28;1758;-71
2022/04/29 00:23:10;;;;;;;10.75;7.82;;;;;;;18.62;39.13;100518.75;343265;28;1393;-71
2022/04/29 00:23:22;;;;;;;11.27;7.95;;;;;;;18.63;38.87;100520.41;343705;28;1260;-71
2022/04/29 00:23:34;;;;;;;10.70;7.95;;;;;;;18.63;38.70;100520.41;343957;28;1319;-71
2022/04/29 00:23:46;;;;;;;9.27;7.65;;;;;;;18.61;38.75;100517.03;343656;28;1052;-71
2022/04/29 00:23:58;;;;;;;9.93;7.43;;;;;;;18.62;38.63;100518.75;342646;28;1693;-71
2022/04/29 00:24:10;;;;;;;9.80;7.30;;;;;;;18.62;39.25;100524.00;343397;28;1772;-72
2022/04/29 00:24:22;;;;;;;9.60;7.50;;;;;;;18.59;39.07;100518.88;342489;28;1086;-72
2022/04/29 00:24:34;;;;;;;9.43;7.82;;;;;;;18.53;39.00;100514.81;342835;28;1686;-73
2022/04/29 00:24:47;;;;;;;9.50;7.78;;;;;;;18.54;39.07;100520.91;343391;28;1536;-72
2022/04/29 00:24:59;;;;;;;9.68;7.72;;;;;;;18.54;39.13;100520.91;342644;28;1672;-73
2022/04/29 00:25:12;;;;;;;10.27;7.63;;;;;;;18.52;38.88;100522.78;343490;28;1904;-72
2022/04/29 00:25:24;;;;;;;11.18;7.78;;;;;;;18.53;38.82;100519.22;343731;28;1275;-74
2022/04/29 00:25:36;;;;;;;12.40;7.93;;;;;;;18.53;38.97;100519.22;342300;28;1116;-73
2022/04/29 00:25:48;;;;;;;12.38;8.20;;;;;;;18.53;39.11;100520.09;342311;28;1735;-73
2022/04/29 00:26:00;;;;;;;12.50;8.30;;;;;;;18.54;39.08;100516.50;342432;28;2019;-72
2022/04/29 00:26:12;;;;;;;11.27;8.05;;;;;;;18.52;38.93;100515.72;342287;28;1975;-73
2022/04/29 00:26:24;;;;;;;10.63;8.00;;;;;;;18.53;38.97;100517.44;340976;29;1092;-73
2022/04/29 00:26:37;;;;;;;10.80;8.02;;;;;;;18.56;38.72;100513.78;341125;29;1281;-72
2022/04/29 00:26:49;;;;;;;11.80;7.93;;;;;;;18.55;38.46;100514.72;340703;29;1053;-73
2022/04/29 00:27:02;;;;;;;11.25;7.95;;;;;;;18.51;38.74;100518.44;340940;28;1781;-73
2022/04/29 00:27:13;;;;;;;9.50;7.93;;;;;;;18.52;38.51;100514.88;342125;28;2000;-72
2022/04/29 00:27:25;;;;;;;8.95;7.57;;;;;;;18.51;38.55;100513.16;342182;28;1339;-72
2022/04/29 00:27:40;;;;;;;9.68;7.50;;;;;;;18.48;38.62;100513.34;341606;28;1666;-73
2022/04/29 00:27:52;;;;;;;10.07;7.80;;;;;;;18.46;38.74;100513.41;340908;29;1258;-72
2022/04/29 00:28:04;;;;;;;9.75;7.95;;;;;;;18.48;38.45;100515.97;341569;28;1794;-72
2022/04/29 00:28:18;;;;;;;8.93;7.95;;;;;;;18.49;38.56;100512.41;341140;28;1871;-71
2022/04/29 00:28:30;;;;;;;8.63;7.47;;;;;;;18.52;38.43;100518.38;342371;28;1811;-71
2022/04/29 00:28:42;;;;;;;8.93;7.47;;;;;;;18.52;38.47;100518.38;343624;28;1297;-71
2022/04/29 00:28:54;;;;;;;9.75;7.80;;;;;;;18.52;38.84;100513.09;342423;28;1056;-72
2022/04/29 00:29:07;;;;;;;11.15;7.97;;;;;;;18.53;38.73;100511.31;340579;29;1985;-73
2022/04/29 00:29:19;;;;;;;10.65;7.82;;;;;;;18.54;39.06;100515.66;339760;29;1100;-73
2022/04/29 00:29:31;;;;;;;9.43;7.90;;;;;;;18.55;38.79;100517.34;340520;29;1302;-72
2022/04/29 00:29:43;;;;;;;9.25;7.90;;;;;;;18.57;38.55;100510.22;339968;28;1966;-72
2022/04/29 00:29:55;;;;;;;9.48;7.85;;;;;;;18.54;39.13;100521.75;340214;29;1901;-72
2022/04/29 00:30:09;;;;;;;9.88;7.78;;;;;;;18.50;38.90;100508.84;340837;29;1082;-72
2022/04/29 00:30:22;;;;;;;9.63;7.68;;;;;;;18.48;38.76;100522.09;339276;29;1183;-72
2022/04/29 00:30:34;;;;;;;9.15;7.20;;;;;;;18.49;38.98;100520.28;340689;29;1739;-73
2022/04/29 00:30:46;;;;;;;9.18;6.75;;;;;;;18.49;38.82;100515.91;340938;29;1072;-73
2022/04/29 00:30:58;;;;;;;10.60;7.20;;;;;;;18.50;38.89;100514.97;341016;28;1701;-73
2022/04/29 00:31:10;;;;;;;10.52;7.50;;;;;;;18.50;39.08;100514.97;341785;28;1596;-73
2022/04/29 00:31:22;;;;;;;10.38;7.40;;;;;;;18.49;38.74;100517.66;343698;28;1107;-74
2022/04/29 00:31:35;;;;;;;9.85;7.47;;;;;;;18.46;38.89;100523.94;343594;28;1340;-72
2022/04/29 00:31:47;;;;;;;9.88;7.50;;;;;;;18.45;38.77;100516.13;343551;28;1019;-70
2022/04/29 00:31:59;;;;;;;8.70;6.80;;;;;;;18.48;38.65;100515.97;342533;28;1844;-70
2022/04/29 00:32:11;;;;;;;8.02;6.78;;;;;;;18.49;38.46;100512.41;343514;28;1070;-70
2022/04/29 00:32:24;;;;;;;7.85;6.82;;;;;;;18.50;38.48;100512.31;343541;28;1174;-70
2022/04/29 00:32:38;;;;;;;8.02;6.93;;;;;;;18.53;38.72;100516.56;342448;28;1076;-70
2022/04/29 00:32:50;;;;;;;8.48;6.88;;;;;;;18.50;38.63;100514.97;342265;28;1103;-70
2022/04/29 00:33:02;;;;;;;9.35;7.15;;;;;;;18.53;38.38;100513.94;342575;28;1733;-71
2022/04/29 00:33:14;;;;;;;9.75;7.28;;;;;;;18.51;38.35;100513.16;343733;28;2050;-71
2022/04/29 00:33:27;;;;;;;9.00;7.15;;;;;;;18.47;38.32;100519.53;342844;28;1722;-71
2022/04/29 00:33:39;;;;;;;9.18;7.32;;;;;;;18.49;38.31;100507.13;344082;28;1436;-71
2022/04/29 00:33:51;;;;;;;10.05;7.60;;;;;;;18.49;38.32;100508.00;344806;28;1083;-71
2022/04/29 00:34:03;;;;;;;12.23;7.65;;;;;;;18.42;38.83;100511.88;344894;28;1022;-72
2022/04/29 00:34:15;;;;;;;12.40;7.47;;;;;;;18.44;38.44;100509.16;343742;28;1664;-69
2022/04/29 00:34:27;;;;;;;10.38;7.15;;;;;;;18.47;38.26;100509.88;343033;28;1825;-70
2022/04/29 00:34:39;;;;;;;9.43;7.03;;;;;;;18.47;38.10;100509.00;343476;28;1172;-70
2022/04/29 00:34:51;;;;;;;9.15;7.03;;;;;;;18.45;38.26;100505.59;343749;28;1333;-70
2022/04/29 00:35:04;;;;;;;10.13;7.18;;;;;;;18.45;38.24;100511.72;342708;28;1779;-69
2022/04/29 00:35:16;;;;;;;10.23;7.15;;;;;;;18.46;38.55;100512.56;343831;28;1662;-70
2022/04/29 00:35:28;;;;;;;10.60;7.38;;;;;;;18.44;38.75;100514.44;343556;28;1325;-70
2022/04/29 00:35:40;;;;;;;9.88;7.38;;;;;;;18.46;38.58;100513.41;343758;28;1226;-70
2022/04/29 00:35:52;;;;;;;8.88;7.03;;;;;;;18.45;38.46;100511.72;343592;28;1056;-70
2022/04/29 00:36:04;;;;;;;8.27;6.80;;;;;;;18.44;38.48;100509.16;342814;28;1726;-70
2022/04/29 00:36:16;;;;;;;9.05;7.05;;;;;;;18.40;38.89;100513.72;342877;28;1975;-70
2022/04/29 00:36:28;;;;;;;9.40;7.20;;;;;;;18.42;39.00;100511.03;342695;28;1200;-70
2022/04/29 00:36:40;;;;;;;9.93;7.38;;;;;;;18.41;38.83;100514.56;343641;28;1298;-70
2022/04/29 00:36:52;;;;;;;9.98;7.43;;;;;;;18.42;38.67;100511.03;343693;28;1075;-70
2022/04/29 00:37:04;;;;;;;9.77;7.50;;;;;;;18.41;38.92;100509.31;342655;28;1788;-70
2022/04/29 00:37:17;;;;;;;9.65;7.20;;;;;;;18.43;38.67;100516.22;343615;28;1509;-70
2022/04/29 00:37:30;;;;;;;8.80;7.32;;;;;;;18.46;38.66;100508.16;343696;28;1296;-70
2022/04/29 00:37:46;;;;;;;8.82;7.28;;;;;;;18.46;38.57;100507.31;343697;28;1349;-70
2022/04/29 00:37:59;;;;;;;8.57;7.15;;;;;;;18.48;38.71;100510.72;343073;28;1680;-70
2022/04/29 00:38:15;;;;;;;8.98;7.10;;;;;;;18.47;38.40;100509.88;343448;28;1979;-70
2022/04/29 00:38:27;;;;;;;9.25;7.15;;;;;;;18.51;38.56;100513.16;343366;28;1322;-69
2022/04/29 00:38:39;;;;;;;8.77;7.05;;;;;;;18.51;38.30;100510.53;342854;28;1687;-70
2022/04/29 00:38:52;;;;;;;9.05;7.28;;;;;;;18.52;38.23;100510.47;342824;28;1667;-71
2022/04/29 00:39:04;;;;;;;9.20;7.10;;;;;;;18.53;38.46;100508.66;342923;28;1718;-72
2022/04/29 00:39:23;;;;;;;8.73;7.22;;;;;;;18.55;38.48;100512.06;343566;28;1029;-71
2022/04/29 00:39:35;;;;;;;8.82;7.45;;;;;;;18.56;38.30;100511.16;343604;28;1120;-71
2022/04/29 00:39:47;;;;;;;8.88;7.28;;;;;;;18.56;38.13;100509.38;342255;28;1081;-72
2022/04/29 00:39:59;;;;;;;8.85;7.18;;;;;;;18.56;38.03;100509.38;341465;28;1768;-71
2022/04/29 00:40:17;;;;;;;8.30;6.95;;;;;;;18.49;38.65;100508.00;342139;28;2037;-71
2022/04/29 00:40:31;;;;;;;8.05;6.80;;;;;;;18.49;38.34;100512.41;341179;28;1332;-71
2022/04/29 00:40:43;;;;;;;10.07;6.95;;;;;;;18.52;38.30;100507.00;342082;28;1047;-72
2022/04/29 00:40:55;;;;;;;10.73;7.25;;;;;;;18.50;38.18;100506.22;341703;28;2665;-70
2022/04/29 00:41:07;;;;;;;11.60;7.55;;;;;;;18.51;38.14;100510.53;341689;28;1915;-71
2022/04/29 00:41:22;;;;;;;10.18;7.20;;;;;;;18.53;38.18;100512.19;341957;28;1043;-72
2022/04/29 00:41:34;;;;;;;9.88;7.15;;;;;;;18.41;38.29;100510.19;342284;28;1354;-72
2022/04/29 00:41:46;;;;;;;10.45;7.30;;;;;;;18.36;38.71;100513.03;341574;28;1636;-72
2022/04/29 00:41:58;;;;;;;9.70;7.05;;;;;;;18.42;38.69;100511.03;343080;28;1712;-72
2022/04/29 00:42:14;;;;;;;8.80;6.70;;;;;;;18.41;38.89;100510.19;343646;28;1519;-72
2022/04/29 00:42:27;;;;;;;8.23;6.88;;;;;;;18.43;38.88;100507.44;342588;28;1360;-72
2022/04/29 00:42:40;;;;;;;9.10;7.22;;;;;;;18.46;38.90;100509.94;343677;28;1034;-72
2022/04/29 00:42:53;;;;;;;9.60;7.55;;;;;;;18.45;38.20;100516.13;343486;28;996;-71
2022/04/29 00:43:05;;;;;;;8.65;7.20;;;;;;;18.43;37.91;100512.72;343071;28;1805;-72
2022/04/29 00:43:17;;;;;;;9.05;7.03;;;;;;;18.44;38.21;100509.16;342744;28;1932;-71
2022/04/29 00:43:29;;;;;;;8.70;7.05;;;;;;;18.41;38.52;100506.69;343487;28;1739;-71
2022/04/29 00:43:41;;;;;;;8.98;7.30;;;;;;;18.43;38.16;100512.72;343729;28;1019;-71
2022/04/29 00:44:07;;;;;;;8.93;7.35;;;;;;;18.44;38.25;100511.81;343427;28;1330;-74
2022/04/29 00:44:19;;;;;;;9.30;7.10;;;;;;;18.42;38.48;100511.03;343477;28;1267;-73
2022/04/29 00:44:31;;;;;;;8.90;6.80;;;;;;;18.44;38.26;100509.16;343477;28;1256;-72
2022/04/29 00:44:45;;;;;;;9.93;7.18;;;;;;;18.46;38.25;100512.56;342652;28;1751;-74
2022/04/29 00:44:57;;;;;;;9.70;7.10;;;;;;;18.49;37.99;100507.13;342658;28;1660;-74
2022/04/29 00:45:09;;;;;;;9.18;6.97;;;;;;;18.53;38.05;100508.66;343383;28;2016;-73
2022/04/29 00:45:22;;;;;;;8.00;6.50;;;;;;;18.53;38.31;100508.66;342902;28;1641;-72
2022/04/29 00:45:35;;;;;;;7.43;6.53;;;;;;;18.56;38.19;100508.53;342160;28;1088;-73
2022/04/29 00:45:47;;;;;;;8.45;6.88;;;;;;;18.54;38.05;100503.34;342178;28;1067;-71
2022/04/29 00:45:59;;;;;;;9.77;6.90;;;;;;;18.55;38.18;100512.06;342655;28;1790;-71
2022/04/29 00:46:11;;;;;;;10.73;7.00;;;;;;;18.56;37.97;100508.53;342697;28;1803;-71
2022/04/29 00:46:23;;;;;;;11.90;6.80;;;;;;;18.57;37.94;100507.59;343172;28;1513;-71
2022/04/29 00:46:44;;;;;;;10.95;6.60;;;;;;;18.57;37.66;100515.47;343734;28;1111;-72
2022/04/29 00:46:56;;;;;;;8.57;6.60;;;;;;;18.54;37.38;100505.13;343218;28;1760;-73
2022/04/29 00:47:11;;;;;;;9.35;6.63;;;;;;;18.51;37.65;100514.03;343477;28;1626;-72
2022/04/29 00:47:23;;;;;;;10.30;6.60;;;;;;;18.53;37.84;100503.41;342403;28;980;-71
2022/04/29 00:47:35;;;;;;;9.70;6.75;;;;;;;18.53;38.04;100503.41;342082;28;1170;-71
2022/04/29 00:47:48;;;;;;;9.27;6.80;;;;;;;18.53;38.04;100508.66;343267;28;1910;-71
2022/04/29 00:48:00;;;;;;;8.50;6.72;;;;;;;18.52;37.92;100507.00;342886;28;1823;-70
2022/04/29 00:48:14;;;;;;;7.75;6.45;;;;;;;18.50;37.62;100500.94;342061;28;1883;-71
2022/04/29 00:48:26;;;;;;;8.25;6.32;;;;;;;18.53;37.77;100503.41;343311;28;1190;-71
2022/04/29 00:48:38;;;;;;;8.43;6.38;;;;;;;18.54;38.03;100505.13;343726;28;1211;-71
2022/04/29 00:48:50;;;;;;;8.90;6.57;;;;;;;18.58;37.83;100509.31;343553;28;1059;-71
2022/04/29 00:49:03;;;;;;;9.60;6.55;;;;;;;18.59;38.13;100505.72;342548;28;1600;-71
2022/04/29 00:49:17;;;;;;;10.32;7.00;;;;;;;18.57;38.36;100502.31;342975;28;1939;-72
2022/04/29 00:49:29;;;;;;;9.48;6.80;;;;;;;18.60;38.26;100510.06;343375;28;1310;-71
2022/04/29 00:49:42;;;;;;;8.50;6.68;;;;;;;18.63;38.26;100509.06;343548;28;1142;-71
2022/04/29 00:49:54;;;;;;;9.68;6.72;;;;;;;18.63;37.76;100503.78;343732;28;1127;-71
2022/04/29 00:50:07;;;;;;;9.75;6.95;;;;;;;18.61;37.79;100503.84;343106;28;1694;-71
2022/04/29 00:50:22;;;;;;;10.13;7.18;;;;;;;18.60;37.77;100504.81;343088;28;1084;-71
2022/04/29 00:50:35;;;;;;;10.32;7.00;;;;;;;18.61;37.81;100509.13;343291;28;1546;-72
2022/04/29 00:50:47;;;;;;;8.68;6.35;;;;;;;18.63;38.10;100504.63;343591;28;1110;-73
2022/04/29 00:50:59;;;;;;;7.70;6.10;;;;;;;18.67;37.89;100506.19;342854;28;1824;-74
2022/04/29 00:51:11;;;;;;;10.80;6.47;;;;;;;18.67;37.90;100508.81;342521;28;1828;-73
2022/04/29 00:51:23;;;;;;;11.60;6.90;;;;;;;18.64;37.75;100505.50;342639;28;1019;-73
2022/04/29 00:51:36;;;;;;;10.07;6.82;;;;;;;18.63;37.68;100504.63;342245;28;1259;-73
2022/04/29 00:51:51;;;;;;;8.52;6.63;;;;;;;18.67;37.50;100506.19;342316;28;1177;-72
2022/04/29 00:52:07;;;;;;;9.40;6.78;;;;;;;18.63;37.37;100507.25;342526;28;1753;-72
2022/04/29 00:52:19;;;;;;;8.55;6.50;;;;;;;18.64;37.60;100516.03;343620;28;1441;-71
2022/04/29 00:52:35;;;;;;;8.80;6.90;;;;;;;18.65;37.24;100505.44;343432;28;1706;-72
2022/04/29 00:52:55;;;;;;;9.70;6.95;;;;;;;18.68;37.26;100501.78;343657;28;1141;-71
2022/04/29 00:53:09;;;;;;;9.13;6.80;;;;;;;18.63;37.55;100509.06;343212;28;1807;-71
2022/04/29 00:53:23;;;;;;;8.75;6.55;;;;;;;18.62;37.79;100508.22;343402;28;1277;-71
2022/04/29 00:53:35;;;;;;;8.13;6.45;;;;;;;18.61;37.53;100508.28;343541;28;1071;-71
2022/04/29 00:53:48;;;;;;;8.95;6.50;;;;;;;18.63;37.57;100509.91;343636;28;1105;-71
2022/04/29 00:54:03;;;;;;;8.77;6.60;;;;;;;18.59;37.88;100508.34;342445;28;1779;-72
2022/04/29 00:54:23;;;;;;;7.70;6.35;;;;;;;18.55;37.84;100507.69;343131;28;1869;-72
2022/04/29 00:54:37;;;;;;;9.05;6.68;;;;;;;18.59;37.62;100502.25;342214;28;1154;-71
2022/04/29 00:54:56;;;;;;;8.63;6.53;;;;;;;18.62;37.52;100505.56;342366;28;1066;-72
2022/04/29 00:55:10;;;;;;;7.70;6.28;;;;;;;18.64;37.38;100511.59;343565;28;1801;-72
2022/04/29 00:55:23;;;;;;;8.00;6.32;;;;;;;18.67;37.50;100503.56;342419;28;1060;-72
2022/04/29 00:55:38;;;;;;;7.82;6.32;;;;;;;18.70;37.73;100506.03;343635;28;1491;-71
2022/04/29 00:55:52;;;;;;;8.95;6.50;;;;;;;18.71;37.72;100507.72;343751;28;1050;-72
2022/04/29 00:56:05;;;;;;;9.07;6.63;;;;;;;18.67;37.72;100500.06;342861;28;1765;-72
2022/04/29 00:56:20;;;;;;;7.93;6.60;;;;;;;18.69;37.68;100503.47;342056;28;1912;-71
2022/04/29 00:56:36;;;;;;;8.23;6.60;;;;;;;18.63;37.94;100509.91;343207;28;1350;-72
2022/04/29 00:56:51;;;;;;;8.40;6.70;;;;;;;18.58;37.89;100506.66;342627;28;1306;-72
2022/04/29 00:57:09;;;;;;;8.75;6.72;;;;;;;18.57;37.75;100502.31;342187;28;1684;-72
2022/04/29 00:57:50;;;;;;;9.27;6.90;;;;;;;18.57;37.58;100504.94;342849;28;1887;-72
2022/04/29 00:58:14;;;;;;;8.80;6.47;;;;;;;18.49;37.50;100508.00;341366;28;1745;-72
2022/04/29 00:58:37;;;;;;;10.85;6.90;;;;;;;18.48;37.40;100501.03;340961;28;1327;-72
2022/04/29 00:58:56;;;;;;;9.15;6.80;;;;;;;18.54;37.69;100505.13;342099;28;1136;-71
2022/04/29 00:59:15;;;;;;;9.02;6.93;;;;;;;18.39;38.03;100501.53;341605;28;1829;-71
2022/04/29 00:59:38;;;;;;;9.15;7.30;;;;;;;18.44;37.95;100496.00;340534;28;1659;-72
2022/04/29 01:00:14;;;;;;;8.77;6.80;;;;;;;18.48;37.67;100494.91;342049;28;1107;-72
2022/04/29 01:00:26;;;;;;;9.07;7.18;;;;;;;18.46;37.62;100508.16;343411;28;1321;-72
2022/04/29 01:00:38;;;;;;;8.77;7.10;;;;;;;18.49;38.15;100491.34;342445;28;1800;-72
2022/04/29 01:00:51;;;;;;;8.63;7.20;;;;;;;18.54;37.93;100500.69;342314;28;1023;-72
2022/04/29 01:01:04;;;;;;;8.68;7.20;;;;;;;18.57;37.70;100504.94;341565;28;1781;-72
2022/04/29 01:01:20;;;;;;;8.77;6.70;;;;;;;18.56;37.11;100500.63;342356;28;2338;-73
2022/04/29 01:01:34;;;;;;;8.48;6.40;;;;;;;18.55;37.00;100499.78;341991;28;1125;-72
2022/04/29 01:01:47;;;;;;;10.00;6.63;;;;;;;18.57;37.06;100499.69;342328;28;1222;-72
2022/04/29 01:02:02;;;;;;;10.30;6.90;;;;;;;18.58;36.99;100501.41;341985;28;1721;-73
2022/04/29 01:02:15;;;;;;;7.90;6.75;;;;;;;18.51;36.98;100505.28;341541;28;1875;-72
2022/04/29 01:02:29;;;;;;;7.82;6.70;;;;;;;18.55;36.95;100501.53;342247;28;1451;-71
2022/04/29 01:02:53;;;;;;;7.78;6.70;;;;;;;18.62;37.22;100508.22;342146;28;1859;-72